Time;durP1;ratioP1;P1;durP2;ratioP2;P2;SDS_P1;SDS_P2;PMS_P1;PMS_P2;Temp;Humidity;BMP_temperature;BMP_pressure;BME280_temperature;BME280_humidity;BME280_pressure;Samples;Min_cycle;Max_cycle;Signal;HPM_P1;HPM_P2
2022/04/04 00:01:27;;;;;;;1.33;0.87;;;0.70;1.00;;;;;;5035240;28;20452;-56
2022/04/04 00:03:54;;;;;;;3.43;1.20;;;0.70;1.00;;;;;;5035155;28;20543;-55
2022/04/04 00:06:22;;;;;;;2.10;0.97;;;0.60;1.00;;;;;;5035089;28;20479;-57
2022/04/04 00:08:49;;;;;;;3.00;1.00;;;0.70;1.00;;;;;;5035616;28;20547;-54
2022/04/04 00:11:17;;;;;;;1.50;0.77;;;0.80;1.00;;;;;;5036402;28;20544;-56
2022/04/04 00:13:44;;;;;;;1.30;0.90;;;1.00;1.00;;;;;;5034728;28;20468;-54
2022/04/04 00:16:11;;;;;;;5.20;0.90;;;1.00;1.00;;;;;;5035202;28;20449;-54
2022/04/04 00:18:38;;;;;;;2.23;1.33;;;1.10;1.00;;;;;;5036341;28;20574;-55
2022/04/04 00:21:05;;;;;;;1.47;0.70;;;1.00;1.00;;;;;;5035312;28;20713;-55
2022/04/04 00:23:33;;;;;;;1.90;0.80;;;0.90;1.00;;;;;;5035653;28;20912;-55
2022/04/04 00:26:00;;;;;;;1.87;0.87;;;0.90;1.00;;;;;;5036314;28;20547;-57
2022/04/04 00:28:27;;;;;;;2.17;0.90;;;0.80;1.00;;;;;;5036082;28;20483;-56
2022/04/04 00:30:54;;;;;;;1.80;0.90;;;0.70;1.00;;;;;;5034052;28;20487;-55
2022/04/04 00:33:20;;;;;;;1.10;0.50;;;0.70;1.00;;;;;;5034937;28;20822;-55
2022/04/04 00:35:48;;;;;;;4.57;0.93;;;0.70;1.00;;;;;;5035547;28;20664;-55
2022/04/04 00:38:16;;;;;;;3.70;0.70;;;0.60;1.00;;;;;;5034438;28;20571;-55
2022/04/04 00:40:45;;;;;;;1.53;0.50;;;0.60;1.00;;;;;;5033639;28;20471;-54
2022/04/04 00:43:11;;;;;;;1.50;0.80;;;0.70;1.00;;;;;;5033760;28;20543;-52
2022/04/04 00:45:38;;;;;;;1.70;0.83;;;0.70;1.00;;;;;;5033955;28;20816;-55
2022/04/04 00:48:06;;;;;;;2.20;0.93;;;0.70;1.00;;;;;;5034693;28;20539;-56
2022/04/04 00:50:33;;;;;;;1.40;0.80;;;0.80;1.00;;;;;;5035092;28;20543;-55
2022/04/04 00:53:01;;;;;;;2.10;0.97;;;0.80;1.00;;;;;;5034432;28;20487;-51
2022/04/04 00:55:28;;;;;;;2.00;0.90;;;0.90;1.00;;;;;;5035230;28;20456;-51
2022/04/04 00:57:57;;;;;;;4.70;0.90;;;0.80;1.00;;;;;;5035925;28;20487;-55
2022/04/04 01:00:24;;;;;;;3.93;0.90;;;0.80;1.00;;;;;;5035926;28;20554;-55
2022/04/04 01:02:51;;;;;;;1.40;0.90;;;0.80;1.00;;;;;;5035845;28;20448;-55
2022/04/04 01:05:18;;;;;;;1.73;0.90;;;0.80;1.00;;;;;;5035717;28;20456;-55
2022/04/04 01:07:45;;;;;;;1.93;1.07;;;0.80;1.00;;;;;;5036048;28;20801;-56
2022/04/04 01:10:12;;;;;;;1.87;1.10;;;0.80;1.00;;;;;;5035787;28;20531;-55
2022/04/04 01:12:50;;;;;;;1.60;1.10;;;0.80;1.00;;;;;;5035684;28;20452;-56
2022/04/04 01:15:18;;;;;;;1.43;0.93;;;0.80;1.00;;;;;;5035834;28;20908;-55
2022/04/04 01:17:46;;;;;;;1.60;0.80;;;0.80;1.00;;;;;;5035825;28;20539;-56
2022/04/04 01:20:14;;;;;;;2.80;1.40;;;0.80;1.00;;;;;;5035721;28;20520;-57
2022/04/04 01:22:41;;;;;;;1.30;0.63;;;0.80;1.00;;;;;;5036076;28;20503;-54
2022/04/04 01:25:10;;;;;;;1.60;0.90;;;0.80;1.00;;;;;;5036384;28;20476;-51
2022/04/04 01:27:39;;;;;;;2.20;0.77;;;0.90;1.00;;;;;;5036103;28;20538;-53
2022/04/04 01:30:08;;;;;;;1.47;0.90;;;0.90;1.00;;;;;;5035957;28;20487;-51
2022/04/04 01:32:35;;;;;;;1.40;0.73;;;0.80;1.00;;;;;;5035882;28;20448;-56
2022/04/04 01:35:02;;;;;;;2.20;1.13;;;0.80;1.00;;;;;;5035859;28;20543;-54
2022/04/04 01:37:29;;;;;;;1.80;0.70;;;0.80;1.00;;;;;;5035697;28;20757;-56
2022/04/04 01:39:56;;;;;;;1.80;0.70;;;0.70;1.00;;;;;;5035579;28;21022;-54
2022/04/04 01:42:24;;;;;;;1.47;0.90;;;0.60;1.00;;;;;;5035627;28;20547;-56
2022/04/04 01:44:51;;;;;;;2.33;0.90;;;0.60;1.00;;;;;;5035557;28;20456;-56
2022/04/04 01:47:18;;;;;;;1.20;0.87;;;0.70;1.00;;;;;;5035601;28;20450;-55
2022/04/04 01:49:45;;;;;;;1.90;0.90;;;0.60;1.00;;;;;;5035711;28;20487;-55
2022/04/04 01:52:12;;;;;;;1.70;0.93;;;0.60;1.00;;;;;;5035545;28;20808;-56
2022/04/04 01:54:39;;;;;;;1.50;0.80;;;0.60;1.00;;;;;;5035412;28;20488;-55
2022/04/04 01:57:06;;;;;;;5.30;1.10;;;0.70;1.00;;;;;;5035999;28;20879;-55
2022/04/04 01:59:34;;;;;;;1.60;0.90;;;0.70;1.00;;;;;;5035540;28;20547;-57
2022/04/04 02:02:01;;;;;;;8.63;0.80;;;0.70;1.00;;;;;;5035467;28;20546;-56
2022/04/04 02:04:28;;;;;;;1.80;0.80;;;0.80;1.00;;;;;;5035581;28;20460;-56
2022/04/04 02:06:55;;;;;;;1.57;0.90;;;0.70;1.00;;;;;;5038689;28;20903;-53
2022/04/04 02:09:22;;;;;;;1.97;1.33;;;0.60;1.00;;;;;;5038834;28;20452;-55
2022/04/04 02:11:49;;;;;;;1.13;0.77;;;0.40;1.00;;;;;;5038651;28;20816;-56
2022/04/04 02:14:16;;;;;;;2.33;0.80;;;0.40;1.00;;;;;;5038701;28;20842;-57
2022/04/04 02:16:45;;;;;;;2.53;1.00;;;0.40;1.00;;;;;;5038732;28;20448;-50
2022/04/04 02:19:12;;;;;;;1.30;0.80;;;0.50;1.00;;;;;;5037173;28;20693;-56
2022/04/04 02:21:39;;;;;;;2.70;1.10;;;0.40;1.00;;;;;;5037190;28;20570;-55
2022/04/04 02:24:06;;;;;;;1.60;0.70;;;0.40;1.00;;;;;;5036917;28;20550;-54
2022/04/04 02:26:33;;;;;;;3.40;1.30;;;0.40;1.00;;;;;;5036214;28;20476;-54
2022/04/04 02:29:00;;;;;;;1.43;0.80;;;0.40;1.00;;;;;;5035230;28;20886;-54
2022/04/04 02:31:27;;;;;;;1.77;0.60;;;0.40;1.00;;;;;;5034892;28;20847;-56
2022/04/04 02:33:56;;;;;;;1.80;1.00;;;0.40;1.00;;;;;;5035141;28;20492;-54
2022/04/04 02:36:23;;;;;;;1.10;0.80;;;0.40;1.00;;;;;;5036715;28;20628;-55
2022/04/04 02:38:50;;;;;;;1.70;0.67;;;0.40;1.00;;;;;;5037386;28;20598;-55
2022/04/04 02:41:17;;;;;;;2.20;1.00;;;0.40;1.00;;;;;;5037400;28;20479;-56
2022/04/04 02:43:44;;;;;;;1.10;0.70;;;0.40;1.00;;;;;;5036264;28;20546;-51
2022/04/04 02:46:12;;;;;;;3.03;0.90;;;0.50;1.00;;;;;;5037103;28;20606;-51
2022/04/04 02:48:39;;;;;;;2.13;0.70;;;0.60;1.00;;;;;;5035289;28;20456;-53
2022/04/04 02:51:08;;;;;;;0.97;0.70;;;0.70;1.00;;;;;;5034717;28;20444;-52
2022/04/04 02:53:35;;;;;;;1.27;0.80;;;0.60;1.00;;;;;;5034746;28;20749;-53
2022/04/04 02:58:46;;;;;;;1.70;0.90;;;0.50;1.00;;;;;;5035466;28;20533;-55
2022/04/04 03:01:13;;;;;;;0.80;0.50;;;0.50;1.00;;;;;;5035678;28;20535;-50
2022/04/04 03:03:40;;;;;;;1.20;0.80;;;0.40;1.00;;;;;;5037176;28;20444;-55
2022/04/04 03:06:08;;;;;;;1.97;0.63;;;0.40;1.00;;;;;;5037961;28;20459;-54
2022/04/04 03:08:36;;;;;;;5.00;0.70;;;0.30;1.00;;;;;;5037617;28;20503;-55
2022/04/04 03:11:03;;;;;;;2.70;0.73;;;0.30;1.00;;;;;;5038149;28;20444;-52
2022/04/04 03:13:30;;;;;;;1.00;0.67;;;0.20;1.00;;;;;;5036569;28;20449;-56
2022/04/04 03:15:57;;;;;;;1.10;0.60;;;0.10;1.00;;;;;;5037757;28;20883;-55
2022/04/04 03:18:25;;;;;;;0.93;0.67;;;0.20;1.00;;;;;;5037496;28;20546;-54
2022/04/04 03:20:53;;;;;;;0.80;0.60;;;0.20;1.00;;;;;;5037652;28;20874;-55
2022/04/04 03:23:22;;;;;;;2.10;0.80;;;0.30;1.00;;;;;;5037672;28;20539;-51
2022/04/04 03:25:49;;;;;;;2.13;0.80;;;0.30;1.00;;;;;;5037855;28;20903;-56
2022/04/04 03:28:16;;;;;;;1.70;0.60;;;0.20;1.00;;;;;;5037491;28;20923;-55
2022/04/04 03:30:43;;;;;;;0.90;0.60;;;0.20;1.00;;;;;;5037605;28;20555;-50
2022/04/04 03:33:10;;;;;;;1.10;0.60;;;0.20;1.00;;;;;;5037545;28;20484;-55
2022/04/04 03:35:37;;;;;;;2.53;0.70;;;0.10;99.90;;;;;;5037694;28;20811;-54
2022/04/04 03:38:07;;;;;;;2.37;0.70;;;0.10;99.90;;;;;;5036812;28;20539;-54
2022/04/04 03:40:36;;;;;;;1.33;0.60;;;0.00;99.90;;;;;;5037423;28;20584;-55
2022/04/04 03:43:04;;;;;;;0.80;0.50;;;0.00;99.90;;;;;;5036910;28;20539;-50
2022/04/04 03:45:32;;;;;;;1.10;0.70;;;0.10;99.90;;;;;;5043318;28;20455;-55
2022/04/04 03:47:59;;;;;;;1.20;0.60;;;0.00;99.90;;;;;;5056321;28;20812;-56
2022/04/04 03:50:28;;;;;;;0.77;0.50;;;0.00;1.00;;;;;;5056122;28;20546;-54
2022/04/04 03:52:55;;;;;;;1.33;0.60;;;0.00;99.90;;;;;;5056398;28;20482;-50
2022/04/04 03:55:25;;;;;;;2.13;0.73;;;0.10;1.00;;;;;;5056647;28;20462;-53
2022/04/04 03:57:54;;;;;;;1.77;0.70;;;0.10;99.90;;;;;;5056601;28;20890;-56
2022/04/04 04:00:23;;;;;;;1.00;0.60;;;0.10;1.00;;;;;;5056625;28;20582;-50
2022/04/04 04:02:50;;;;;;;1.30;0.70;;;0.00;1.00;;;;;;5057048;28;20451;-50
2022/04/04 04:05:17;;;;;;;1.10;0.50;;;0.00;99.90;;;;;;5056777;28;20469;-53
2022/04/04 04:07:44;;;;;;;0.83;0.50;;;0.00;8.20;;;;;;5056818;28;20517;-56
2022/04/04 04:10:12;;;;;;;1.37;0.60;;;0.00;99.90;;;;;;5056566;28;20553;-52
2022/04/04 04:12:39;;;;;;;1.30;0.50;;;0.00;99.90;;;;;;5056146;28;20518;-54
2022/04/04 04:15:10;;;;;;;0.93;0.60;;;0.10;1.00;;;;;;5056188;28;20752;-56
2022/04/04 04:17:37;;;;;;;1.10;0.57;;;0.20;1.00;;;;;;5055697;28;20839;-56
2022/04/04 04:20:20;;;;;;;1.43;0.70;;;0.20;1.00;;;;;;5055854;28;20606;-56
2022/04/04 04:22:49;;;;;;;1.97;0.60;;;0.30;99.90;;;;;;5055231;28;20839;-55
2022/04/04 04:25:16;;;;;;;0.93;0.70;;;0.20;1.00;;;;;;5055262;28;20466;-55
2022/04/04 04:27:45;;;;;;;1.03;0.60;;;0.30;1.00;;;;;;5055565;28;20455;-56
2022/04/04 04:30:15;;;;;;;2.00;0.53;;;0.20;99.90;;;;;;5055867;28;20918;-56
2022/04/04 04:32:44;;;;;;;1.40;0.80;;;0.00;1.00;;;;;;5055436;28;20447;-54
2022/04/04 04:35:12;;;;;;;3.00;0.90;;;0.00;1.00;;;;;;5056146;28;20906;-56
2022/04/04 04:37:39;;;;;;;1.00;0.60;;;-0.10;1.00;;;;;;5056146;28;20541;-55
2022/04/04 04:40:07;;;;;;;2.10;0.70;;;-0.10;99.90;;;;;;5056258;28;20232;-57
2022/04/04 04:42:34;;;;;;;1.17;0.60;;;0.00;1.00;;;;;;5056063;28;20501;-53
2022/04/04 04:45:01;;;;;;;1.13;0.70;;;0.00;99.90;;;;;;5055361;28;20550;-55
2022/04/04 04:47:30;;;;;;;1.10;0.50;;;0.10;1.00;;;;;;5054810;28;20454;-56
2022/04/04 04:49:57;;;;;;;1.37;0.60;;;0.00;1.00;;;;;;5055363;28;20558;-52
2022/04/04 04:52:24;;;;;;;1.10;0.60;;;-0.10;1.00;;;;;;5055183;28;20444;-53
2022/04/04 04:54:52;;;;;;;3.07;0.70;;;-0.20;1.00;;;;;;5055419;28;20546;-56
2022/04/04 04:57:19;;;;;;;2.20;1.10;;;-0.30;99.90;;;;;;5053965;28;20483;-55
2022/04/04 04:59:46;;;;;;;2.27;0.70;;;-0.50;99.90;;;;;;5054687;28;20606;-52
2022/04/04 05:02:13;;;;;;;3.20;0.57;;;-0.70;99.90;;;;;;5053991;28;20547;-55
2022/04/04 05:04:42;;;;;;;1.10;0.50;;;-0.80;1.00;;;;;;5054567;28;20501;-53
2022/04/04 05:07:09;;;;;;;1.47;0.70;;;-1.00;79.50;;;;;;5054532;28;20451;-51
2022/04/04 05:09:36;;;;;;;2.90;0.70;;;-1.00;1.00;;;;;;5053359;28;20767;-54
2022/04/04 05:12:03;;;;;;;1.37;0.87;;;-1.00;99.90;;;;;;5053037;28;20526;-53
2022/04/04 05:14:30;;;;;;;2.77;1.00;;;-1.00;1.00;;;;;;5053657;28;20543;-54
2022/04/04 05:16:57;;;;;;;2.00;0.80;;;-0.90;99.90;;;;;;5053530;28;20494;-55
2022/04/04 05:19:24;;;;;;;2.23;0.80;;;-0.80;1.00;;;;;;5053335;28;20534;-53
2022/04/04 05:21:52;;;;;;;2.83;0.70;;;-0.70;99.90;;;;;;5053517;28;20474;-53
2022/04/04 05:24:19;;;;;;;1.47;0.60;;;-0.80;1.00;;;;;;5054535;28;20462;-54
2022/04/04 05:26:47;;;;;;;1.70;0.80;;;-0.80;99.90;;;;;;5054154;28;20534;-53
2022/04/04 05:29:15;;;;;;;1.93;0.70;;;-0.70;1.00;;;;;;5054844;28;20968;-52
2022/04/04 05:31:42;;;;;;;1.23;0.80;;;-0.70;1.00;;;;;;5054017;28;20447;-53
2022/04/04 05:34:09;;;;;;;1.03;0.60;;;-0.70;99.90;;;;;;5052823;28;20965;-55
2022/04/04 05:36:36;;;;;;;1.83;0.90;;;-0.70;1.00;;;;;;5053122;28;20490;-56
2022/04/04 05:39:06;;;;;;;2.33;0.50;;;-0.80;1.00;;;;;;5052428;28;20914;-54
2022/04/04 05:41:36;;;;;;;1.80;0.63;;;-0.80;1.00;;;;;;5055002;28;20483;-49
2022/04/04 05:44:04;;;;;;;1.03;0.60;;;-0.90;99.90;;;;;;5057022;28;20764;-56
2022/04/04 05:46:31;;;;;;;1.83;0.70;;;-0.90;99.90;;;;;;5055950;28;20871;-56
2022/04/04 05:48:58;;;;;;;1.03;0.70;;;-0.90;99.90;;;;;;5055993;28;20529;-53
2022/04/04 05:51:25;;;;;;;1.80;0.70;;;-1.00;1.00;;;;;;5056017;28;20446;-54
2022/04/04 05:53:52;;;;;;;1.93;0.77;;;-0.90;1.00;;;;;;5055715;28;20465;-54
2022/04/04 05:56:21;;;;;;;2.90;0.60;;;-0.90;99.90;;;;;;5056734;28;20809;-57
2022/04/04 05:58:48;;;;;;;2.33;0.73;;;-0.80;99.90;;;;;;5057455;28;20457;-53
2022/04/04 06:01:15;;;;;;;1.80;0.97;;;-0.80;1.00;;;;;;5056944;28;20862;-53
2022/04/04 06:03:42;;;;;;;1.20;0.60;;;-0.70;1.00;;;;;;5056423;28;20957;-53
2022/04/04 06:06:09;;;;;;;1.43;0.77;;;-0.70;99.90;;;;;;5055784;28;20546;-54
2022/04/04 06:08:36;;;;;;;2.00;0.80;;;-0.60;99.90;;;;;;5056084;28;20443;-51
2022/04/04 06:11:03;;;;;;;2.00;0.70;;;-0.50;99.90;;;;;;5055185;28;20928;-54
2022/04/04 06:13:31;;;;;;;1.13;1.03;;;-0.50;66.60;;;;;;5053517;28;20517;-54
2022/04/04 06:15:58;;;;;;;4.57;1.20;;;-0.40;1.00;;;;;;5053173;28;20532;-53
2022/04/04 06:18:25;;;;;;;2.93;0.90;;;-0.40;1.00;;;;;;5055600;28;20540;-52
2022/04/04 06:20:52;;;;;;;1.53;0.87;;;-0.40;1.00;;;;;;5054148;28;20792;-53
2022/04/04 06:23:19;;;;;;;2.37;0.90;;;-0.40;1.00;;;;;;5049088;28;20490;-52
2022/04/04 06:25:49;;;;;;;2.00;0.83;;;-0.40;1.00;;;;;;5052780;28;20926;-53
2022/04/04 06:28:16;;;;;;;1.77;0.80;;;-0.30;99.90;;;;;;5053907;28;20444;-51
2022/04/04 06:30:45;;;;;;;4.33;0.90;;;-0.30;99.90;;;;;;5055655;28;20462;-54
2022/04/04 06:33:12;;;;;;;1.73;0.80;;;-0.20;1.00;;;;;;5049533;28;20754;-55
2022/04/04 06:35:39;;;;;;;1.50;0.80;;;-0.20;1.00;;;;;;5036725;28;20486;-55
2022/04/04 06:38:08;;;;;;;1.90;1.00;;;-0.10;1.00;;;;;;5042508;28;20505;-55
2022/04/04 06:40:35;;;;;;;1.67;0.80;;;-0.10;1.00;;;;;;5050023;28;20516;-55
2022/04/04 06:43:03;;;;;;;1.17;0.80;;;-0.10;1.00;;;;;;5047095;28;20459;-59
2022/04/04 06:45:29;;;;;;;1.40;0.80;;;0.00;99.90;;;;;;5050010;28;20835;-55
2022/04/04 06:47:58;;;;;;;1.63;0.60;;;0.10;99.90;;;;;;5049371;28;20998;-60
2022/04/04 06:50:25;;;;;;;2.33;0.80;;;0.20;99.90;;;;;;5043625;28;20559;-56
2022/04/04 06:52:53;;;;;;;1.17;0.63;;;0.30;99.90;;;;;;5044737;28;20542;-55
2022/04/04 06:55:21;;;;;;;1.67;0.60;;;0.50;1.00;;;;;;5052294;28;20460;-55
2022/04/04 06:57:47;;;;;;;1.83;0.60;;;0.50;19.00;;;;;;5052711;28;20444;-54
2022/04/04 07:00:16;;;;;;;2.93;0.67;;;0.60;99.90;;;;;;5052958;28;20582;-55
2022/04/04 07:02:44;;;;;;;1.00;0.67;;;0.70;99.90;;;;;;5052878;28;20911;-54
2022/04/04 07:05:12;;;;;;;1.37;0.90;;;0.80;1.00;;;;;;5052492;28;20459;-55
2022/04/04 07:07:39;;;;;;;3.40;1.00;;;0.90;99.90;;;;;;5053497;28;20497;-57
2022/04/04 07:10:06;;;;;;;1.40;0.67;;;1.10;99.90;;;;;;5052686;28;20510;-56
2022/04/04 07:12:34;;;;;;;1.10;0.70;;;1.20;99.90;;;;;;5053229;28;20479;-54
2022/04/04 07:15:02;;;;;;;1.67;0.70;;;1.30;1.00;;;;;;5054341;28;20621;-56
2022/04/04 07:17:29;;;;;;;2.40;0.90;;;1.50;1.00;;;;;;5048577;28;20870;-57
2022/04/04 07:19:56;;;;;;;1.60;0.83;;;1.60;1.00;;;;;;5055505;28;20546;-56
2022/04/04 07:22:25;;;;;;;1.37;0.77;;;1.70;1.00;;;;;;5054823;28;20511;-56
2022/04/04 07:24:52;;;;;;;0.70;0.50;;;1.80;1.00;;;;;;5056199;28;20524;-53
2022/04/04 07:27:19;;;;;;;2.47;1.03;;;1.90;99.90;;;;;;5055224;28;20509;-57
2022/04/04 07:29:46;;;;;;;1.60;1.00;;;2.00;99.90;;;;;;5054122;28;20487;-53
2022/04/04 07:32:13;;;;;;;1.80;0.77;;;2.00;99.90;;;;;;5052736;28;20480;-53
2022/04/04 07:34:40;;;;;;;1.77;0.90;;;2.00;99.90;;;;;;5053547;28;20533;-55
2022/04/04 07:37:07;;;;;;;1.60;0.80;;;2.20;99.90;;;;;;5054446;28;20459;-54
2022/04/04 07:39:35;;;;;;;1.10;0.67;;;2.30;99.90;;;;;;5052674;28;20504;-56
2022/04/04 07:42:02;;;;;;;2.90;0.90;;;2.50;36.00;;;;;;5051971;28;20477;-55
2022/04/04 07:44:29;;;;;;;1.00;0.67;;;2.60;1.00;;;;;;5051917;28;20559;-54
2022/04/04 07:46:55;;;;;;;1.40;0.77;;;2.70;1.00;;;;;;5048339;28;20475;-52
2022/04/04 07:49:23;;;;;;;1.43;0.70;;;2.80;1.00;;;;;;5050326;28;20982;-55
2022/04/04 07:51:52;;;;;;;2.30;0.73;;;3.00;1.00;;;;;;5048149;28;20489;-56
2022/04/04 07:54:19;;;;;;;1.20;0.80;;;3.00;1.00;;;;;;5048132;28;20891;-53
2022/04/04 07:56:47;;;;;;;1.10;0.70;;;3.20;1.00;;;;;;5048692;28;20513;-55
2022/04/04 07:59:14;;;;;;;1.23;0.80;;;3.40;1.00;;;;;;5049803;28;20913;-52
2022/04/04 08:01:40;;;;;;;1.37;0.90;;;3.60;1.00;;;;;;5050241;28;20845;-56
2022/04/04 08:04:07;;;;;;;4.77;0.90;;;3.60;1.00;;;;;;5050179;28;20546;-55
2022/04/04 08:06:34;;;;;;;3.03;0.93;;;3.90;1.00;;;;;;5051830;28;20475;-55
2022/04/04 08:09:01;;;;;;;7.03;3.47;;;4.00;1.00;;;;;;5052588;28;20484;-55
2022/04/04 08:11:28;;;;;;;0.97;0.60;;;4.20;1.00;;;;;;5053178;28;20500;-58
2022/04/04 08:13:57;;;;;;;1.73;0.90;;;4.30;1.00;;;;;;5054278;28;20467;-56
2022/04/04 08:16:26;;;;;;;2.13;0.80;;;4.30;1.00;;;;;;5053092;28;20889;-53
2022/04/04 08:18:54;;;;;;;1.67;1.07;;;4.40;1.00;;;;;;5049575;28;20457;-56
2022/04/04 08:21:23;;;;;;;1.80;0.90;;;4.40;1.00;;;;;;5054250;28;20487;-55
2022/04/04 08:23:50;;;;;;;1.50;1.00;;;4.60;1.00;;;;;;5052764;28;20879;-56
2022/04/04 08:26:17;;;;;;;1.30;0.73;;;4.50;1.00;;;;;;5052816;28;20519;-57
2022/04/04 08:28:44;;;;;;;1.37;0.97;;;4.50;1.00;;;;;;5053496;28;20801;-54
2022/04/04 08:31:12;;;;;;;1.57;1.23;;;4.30;1.00;;;;;;5052020;28;20515;-54
2022/04/04 08:33:39;;;;;;;2.37;0.93;;;4.40;1.00;;;;;;5053969;28;20906;-54
2022/04/04 08:36:06;;;;;;;3.10;1.00;;;4.50;1.00;;;;;;5054423;28;20447;-55
2022/04/04 08:38:37;;;;;;;1.00;0.70;;;4.40;1.00;;;;;;5054464;28;20980;-56
2022/04/04 08:41:06;;;;;;;2.37;0.90;;;4.40;1.00;;;;;;5053138;28;20965;-54
2022/04/04 08:43:37;;;;;;;1.40;1.23;;;4.60;1.00;;;;;;5054728;28;20818;-56
2022/04/04 08:46:06;;;;;;;1.70;1.00;;;4.60;1.00;;;;;;5053569;28;20521;-57
2022/04/04 08:48:36;;;;;;;2.03;1.00;;;4.70;1.00;;;;;;5052894;28;20453;-56
2022/04/04 08:51:03;;;;;;;2.10;1.30;;;5.00;1.00;;;;;;5053333;28;20462;-54
2022/04/04 08:53:30;;;;;;;1.13;0.70;;;5.10;1.00;;;;;;5052569;28;20426;-56
2022/04/04 08:55:58;;;;;;;3.47;1.60;;;5.10;1.00;;;;;;5050046;28;20448;-55
2022/04/04 08:58:26;;;;;;;1.57;0.97;;;4.90;1.00;;;;;;5050764;28;20495;-55
2022/04/04 09:00:53;;;;;;;1.40;1.10;;;4.90;1.00;;;;;;5051693;28;20569;-56
2022/04/04 09:03:22;;;;;;;1.20;0.70;;;5.10;1.00;;;;;;5053345;28;20447;-54
2022/04/04 09:05:55;;;;;;;1.83;0.83;;;5.30;1.00;;;;;;5051539;28;20531;-56
2022/04/04 09:08:23;;;;;;;1.80;0.80;;;5.40;1.00;;;;;;5051239;28;20762;-52
2022/04/04 09:10:56;;;;;;;2.33;0.80;;;5.00;1.00;;;;;;5050594;28;20450;-55
2022/04/04 09:13:24;;;;;;;1.93;0.97;;;4.90;1.00;;;;;;5047246;28;20476;-53
2022/04/04 09:15:56;;;;;;;1.20;0.90;;;4.80;1.00;;;;;;5056892;28;20454;-55
2022/04/04 09:18:42;;;;;;;1.00;0.70;;;4.80;1.00;;;;;;5056519;28;20692;-57
2022/04/04 09:21:13;;;;;;;1.20;0.60;;;4.80;1.00;;;;;;5057217;28;20541;-55
2022/04/04 09:23:55;;;;;;;1.57;0.90;;;4.70;1.00;;;;;;5057065;28;20815;-57
2022/04/04 09:26:31;;;;;;;2.47;1.00;;;4.90;1.00;;;;;;5058607;28;20417;-55
2022/04/04 09:28:58;;;;;;;2.60;0.80;;;5.00;1.00;;;;;;5059158;28;20425;-51
2022/04/04 09:31:25;;;;;;;1.93;0.90;;;5.30;1.00;;;;;;5057610;28;20530;-52
2022/04/04 09:33:52;;;;;;;2.00;1.20;;;5.30;1.00;;;;;;5057437;28;20535;-51
2022/04/04 09:36:21;;;;;;;2.33;1.00;;;5.30;1.00;;;;;;5056750;28;20201;-55
2022/04/04 09:38:56;;;;;;;1.83;1.17;;;5.30;1.00;;;;;;5055504;28;20549;-52
2022/04/04 09:41:24;;;;;;;1.10;0.80;;;5.50;1.00;;;;;;5044436;28;20449;-53
2022/04/04 09:43:52;;;;;;;1.60;1.00;;;5.40;1.00;;;;;;5053074;28;20451;-54
2022/04/04 09:46:19;;;;;;;1.17;0.90;;;5.50;1.00;;;;;;5054075;28;20538;-56
2022/04/04 09:49:07;;;;;;;1.47;0.97;;;5.40;1.00;;;;;;5053802;28;20451;-55
2022/04/04 09:51:42;;;;;;;1.40;0.90;;;5.30;1.00;;;;;;5056904;28;20821;-53
2022/04/04 09:54:10;;;;;;;1.90;0.90;;;5.40;1.00;;;;;;5058622;28;20458;-54
2022/04/04 09:56:38;;;;;;;1.73;0.70;;;5.70;1.00;;;;;;5058098;28;20853;-55
2022/04/04 09:59:06;;;;;;;1.87;1.17;;;6.00;1.00;;;;;;5057971;28;20546;-55
2022/04/04 10:01:34;;;;;;;2.30;1.10;;;6.50;1.00;;;;;;5057711;28;20479;-53
2022/04/04 10:04:03;;;;;;;1.60;0.90;;;6.80;1.00;;;;;;5060031;28;20949;-53
2022/04/04 10:06:31;;;;;;;1.70;1.10;;;6.70;1.00;;;;;;5056877;28;20455;-59
2022/04/04 10:09:02;;;;;;;2.67;1.10;;;6.50;1.00;;;;;;5056251;28;20243;-58
2022/04/04 10:11:30;;;;;;;1.33;0.77;;;6.30;1.00;;;;;;5058456;28;20830;-56
2022/04/04 10:13:58;;;;;;;1.10;0.80;;;6.10;1.00;;;;;;5058707;28;20455;-58
2022/04/04 10:16:25;;;;;;;2.03;0.93;;;6.20;1.00;;;;;;5058324;28;20446;-58
2022/04/04 10:18:54;;;;;;;1.37;0.90;;;6.20;1.00;;;;;;5058202;28;20557;-58
2022/04/04 10:21:22;;;;;;;3.30;1.00;;;6.60;1.00;;;;;;5058011;28;20578;-58
2022/04/04 10:23:51;;;;;;;1.90;1.10;;;6.80;1.00;;;;;;5056676;28;20450;-57
2022/04/04 10:26:21;;;;;;;4.37;1.00;;;6.70;1.00;;;;;;5054033;28;20475;-58
2022/04/04 10:28:49;;;;;;;1.30;0.80;;;6.90;1.00;;;;;;5053876;28;20455;-58
2022/04/04 10:31:18;;;;;;;1.90;1.07;;;7.10;1.00;;;;;;5055910;28;20467;-58
2022/04/04 10:33:46;;;;;;;1.30;0.90;;;7.50;1.00;;;;;;5052957;28;20867;-58
2022/04/04 10:36:16;;;;;;;1.67;0.90;;;7.50;1.00;;;;;;5051425;28;20584;-57
2022/04/04 10:38:50;;;;;;;2.27;1.10;;;7.50;1.00;;;;;;5041193;28;20460;-59
2022/04/04 10:41:18;;;;;;;1.90;0.90;;;7.30;1.00;;;;;;5044499;28;20558;-57
2022/04/04 10:43:49;;;;;;;2.73;1.07;;;7.20;1.00;;;;;;5043803;28;20546;-56
2022/04/04 10:46:17;;;;;;;2.40;1.20;;;7.10;1.00;;;;;;5050067;28;20542;-58
2022/04/04 10:48:49;;;;;;;3.40;1.70;;;7.60;1.00;;;;;;5046733;28;20460;-56
2022/04/04 10:51:18;;;;;;;2.90;0.97;;;8.00;1.00;;;;;;5052961;28;20547;-59
2022/04/04 10:53:49;;;;;;;2.50;1.00;;;8.50;1.00;;;;;;5055495;28;20459;-58
2022/04/04 10:56:21;;;;;;;1.50;0.90;;;8.90;1.00;;;;;;5054307;28;20454;-57
2022/04/04 10:58:51;;;;;;;1.40;0.80;;;9.30;1.00;;;;;;5054103;28;20486;-58
2022/04/04 11:01:20;;;;;;;1.57;0.87;;;9.90;1.00;;;;;;5053780;28;20440;-58
2022/04/04 11:03:59;;;;;;;1.43;0.80;;;10.40;1.00;;;;;;5055344;28;20833;-57
2022/04/04 11:09:32;;;;;;;1.47;0.87;;;9.70;1.00;;;;;;5046905;28;20518;-57
2022/04/04 11:12:13;;;;;;;1.10;0.70;;;9.60;1.00;;;;;;5054621;28;20436;-57
2022/04/04 11:14:54;;;;;;;1.03;0.80;;;9.60;1.00;;;;;;5047529;28;20459;-56
2022/04/04 11:17:30;;;;;;;1.27;0.80;;;9.90;1.00;;;;;;5047027;28;20451;-54
2022/04/04 11:20:04;;;;;;;1.20;0.90;;;10.10;1.00;;;;;;5050967;28;20449;-55
2022/04/04 11:22:33;;;;;;;1.93;1.07;;;9.40;1.00;;;;;;5052157;28;20532;-54
2022/04/04 11:25:03;;;;;;;1.43;0.90;;;9.00;1.00;;;;;;5051726;28;20461;-54
2022/04/04 11:27:33;;;;;;;1.70;0.80;;;9.10;1.00;;;;;;5046754;28;20810;-53
2022/04/04 11:30:03;;;;;;;1.13;0.80;;;9.60;1.00;;;;;;5052299;28;20465;-54
2022/04/04 11:32:33;;;;;;;1.97;1.00;;;9.50;1.00;;;;;;5054420;28;20523;-54
2022/04/04 11:35:02;;;;;;;1.63;0.87;;;9.50;1.00;;;;;;5052447;28;20459;-54
2022/04/04 11:37:29;;;;;;;4.10;1.80;;;9.40;1.00;;;;;;5050139;28;20500;-52
2022/04/04 11:40:03;;;;;;;1.57;0.90;;;9.70;1.00;;;;;;5052107;28;20513;-53
2022/04/04 11:42:31;;;;;;;3.50;1.13;;;10.20;1.00;;;;;;5054331;28;20541;-53
2022/04/04 11:44:59;;;;;;;1.50;0.90;;;10.10;1.00;;;;;;5054587;28;20554;-55
2022/04/04 11:47:28;;;;;;;1.27;0.90;;;9.80;1.00;;;;;;5053535;28;20482;-50
2022/04/04 11:49:58;;;;;;;1.50;0.90;;;10.00;1.00;;;;;;5051378;28;20506;-56
2022/04/04 11:52:30;;;;;;;1.37;0.90;;;10.60;1.00;;;;;;5050542;28;20448;-56
2022/04/04 11:54:57;;;;;;;1.70;0.98;;;10.40;1.00;;;;;;5049506;28;20467;-55
2022/04/04 11:57:25;;;;;;;1.20;0.80;;;10.30;1.00;;;;;;5050516;28;20192;-56
2022/04/04 11:59:52;;;;;;;1.90;0.90;;;9.90;1.00;;;;;;5050711;28;20456;-56
2022/04/04 12:02:23;;;;;;;2.17;0.90;;;10.10;1.00;;;;;;5050119;28;20471;-58
2022/04/04 12:04:51;;;;;;;1.13;0.70;;;10.40;1.00;;;;;;5048610;28;20491;-58
2022/04/04 12:07:18;;;;;;;1.20;0.90;;;11.00;1.00;;;;;;5048390;28;20898;-58
2022/04/04 12:09:51;;;;;;;2.23;0.80;;;11.10;1.00;;;;;;5040393;28;20468;-57
2022/04/04 12:12:18;;;;;;;1.10;0.80;;;11.00;1.00;;;;;;5048778;28;20462;-58
2022/04/04 12:14:48;;;;;;;1.57;0.80;;;10.70;1.00;;;;;;5032051;28;20615;-58
2022/04/04 12:17:15;;;;;;;1.10;0.70;;;10.60;1.00;;;;;;5042737;28;20455;-57
2022/04/04 12:19:43;;;;;;;2.47;0.80;;;10.30;1.00;;;;;;5046475;28;20715;-59
2022/04/04 12:24:56;;;;;;;2.73;1.10;;;10.70;1.00;;;;;;5047346;28;20429;-58
2022/04/04 12:27:24;;;;;;;1.00;0.80;;;10.70;1.00;;;;;;5048701;28;20979;-60
2022/04/04 12:29:57;;;;;;;1.27;0.80;;;10.50;1.00;;;;;;5050564;28;20453;-60
2022/04/04 12:32:24;;;;;;;1.70;1.13;;;10.10;1.00;;;;;;5050792;28;20439;-59
2022/04/04 12:34:59;;;;;;;1.63;0.93;;;9.80;1.00;;;;;;5053482;28;20452;-60
2022/04/04 12:37:42;;;;;;;1.20;0.83;;;10.00;1.00;;;;;;5052035;28;20521;-60
2022/04/04 12:40:17;;;;;;;1.47;0.87;;;10.40;1.00;;;;;;5053722;28;20451;-60
2022/04/04 12:42:45;;;;;;;1.50;0.83;;;10.00;1.00;;;;;;5054268;28;20669;-60
2022/04/04 12:45:12;;;;;;;1.20;0.80;;;10.10;1.00;;;;;;5054075;28;20455;-60
2022/04/04 12:47:59;;;;;;;4.90;0.70;;;10.00;1.00;;;;;;5054098;28;20454;-59
2022/04/04 12:50:37;;;;;;;1.33;0.73;;;9.90;1.00;;;;;;5052189;28;20758;-60
2022/04/04 12:53:07;;;;;;;1.60;0.80;;;9.90;1.00;;;;;;5051945;28;20435;-60
2022/04/04 12:55:35;;;;;;;1.07;0.80;;;10.00;1.00;;;;;;5053574;28;20447;-61
2022/04/04 12:58:20;;;;;;;2.03;1.00;;;10.40;1.00;;;;;;5052869;28;20447;-60
2022/04/04 13:00:48;;;;;;;1.03;0.80;;;10.90;1.00;;;;;;5052958;28;21081;-60
2022/04/04 13:03:19;;;;;;;1.50;1.00;;;10.80;1.00;;;;;;5051493;28;20482;-59
2022/04/04 13:05:48;;;;;;;1.90;0.97;;;10.40;1.00;;;;;;5050848;28;20478;-60
2022/04/04 13:08:20;;;;;;;2.40;1.00;;;10.10;1.00;;;;;;5048578;28;20526;-60
2022/04/04 13:11:07;;;;;;;2.30;1.50;;;9.80;1.00;;;;;;5049432;28;20452;-59
2022/04/04 13:13:35;;;;;;;2.80;1.67;;;10.30;1.00;;;;;;5051620;28;20741;-58
2022/04/04 13:16:03;;;;;;;1.43;0.80;;;10.10;1.00;;;;;;5051204;28;20451;-59
2022/04/04 13:18:30;;;;;;;2.10;1.00;;;9.90;1.00;;;;;;5050214;28;20505;-59